Aérodrome :
LOGIN :

S'inscrire | Disclaimer

   EN    FR    IT 

 










Légende :    VFR   VFR Marginal   IFR   IFR Intensif   IFR Très Intensif
Visi : 
Plafond : 
>= 8 km
>= 3000ft
5 à 8 km
1000 à 3000 ft
1500m à 5 km
500 à 1000 ft
800 à 1500m
200 à 500 ft
< 800m
< 200 ft
Symboles :   Orages  Brouillard  Fortes neiges  Fortes précipitations  Vent > 20 kt
SIGMETs :   Divers  Orages  Givrage  Turbulence  Onde Orograph.  Cendres Volcan.







- Altitude de l'aérodrome : 112 ft
- Code IATA : KIR


EIKY - Kerry Farranfore

DERNIER METAR :
  • 251200Z 32006KT 280V010 9999 FEW020 BKN026 17/13 Q1019

METARs EXPIRÉS :
  • 251130Z 28004KT 230V330 9999 FEW020 BKN026 17/13 Q1019
  • 251100Z 32005KT 270V360 9999 SCT018 BKN026 17/13 Q1019
  • 251030Z 33005KT 280V010 9999 SCT016 BKN024 16/13 Q1019
  • 251000Z 29003KT 240V360 9999 SCT021 BKN025 16/13 Q1020
  • 250930Z 31007KT 250V350 9999 BKN017 BKN021 16/13 Q1020

TAF TAF EIKY
Valide du 25 à 12h jusqu'au 25 à 21h UTC


251100Z 2512/2521 31008KT 9999 FEW015 BKN025
BECMG 2519/2521 VRB03KT
Pas de NOTAMs connus pour ce terrain.



MET'MAP, la Météo Aéronautique d'un coup d'oeil ! - Copyright ORBIFLY Décembre 2007 - Disclaimer

ORBIFLY MET'MAP TEAM :

Programmation & Développement : Alexandra Zaïnal
Conception & Développement : Baudouin d'Aumeries
Co-Programmation & Développement : Marc-Olivier Méhu
Soutien technique & logistique : Manuel Goepfert

Contact : metmap@orbifly.com




SOURCES & CREDITS :

   NOAA